createdAt,value
2023-01-21T00:01:49.118Z,6.43
2023-01-21T00:04:17.018Z,6.95
2023-01-21T00:06:47.755Z,6.93
2023-01-21T00:09:20.999Z,8.00
2023-01-21T00:11:51.149Z,7.10
2023-01-21T00:14:25.740Z,7.22
2023-01-21T00:16:58.232Z,7.75
2023-01-21T00:19:32.301Z,7.47
2023-01-21T00:22:00.273Z,6.75
2023-01-21T00:24:30.373Z,7.18
2023-01-21T00:26:57.876Z,6.60
2023-01-21T00:29:26.368Z,6.80
2023-01-21T00:31:53.936Z,7.63
2023-01-21T00:34:22.747Z,6.55
2023-01-21T00:36:50.273Z,8.95
2023-01-21T00:39:17.773Z,8.13
2023-01-21T00:41:45.270Z,8.70
2023-01-21T00:44:12.818Z,9.43
2023-01-21T00:46:40.425Z,11.05
2023-01-21T00:49:07.965Z,14.35
2023-01-21T00:51:36.811Z,13.80
2023-01-21T00:54:04.484Z,18.88
2023-01-21T00:56:31.987Z,15.40
2023-01-21T00:58:59.568Z,15.55
2023-01-21T01:01:30.330Z,15.65
2023-01-21T01:03:57.807Z,16.17
2023-01-21T01:06:25.300Z,17.52
2023-01-21T01:08:57.789Z,16.02
2023-01-21T01:11:26.779Z,14.35
2023-01-21T01:13:54.804Z,10.85
2023-01-21T01:16:23.253Z,10.43
2023-01-21T01:18:52.537Z,12.70
2023-01-21T01:21:22.187Z,10.88
2023-01-21T01:23:52.105Z,9.02
2023-01-21T01:26:22.395Z,9.27
2023-01-21T01:28:49.998Z,11.52
2023-01-21T01:31:19.112Z,11.63
2023-01-21T01:33:47.115Z,11.18
2023-01-21T01:36:16.129Z,10.35
2023-01-21T01:38:44.245Z,10.75
2023-01-21T01:41:16.104Z,9.80
2023-01-21T01:43:54.598Z,9.80
2023-01-21T01:46:23.513Z,7.38
2023-01-21T01:48:56.013Z,6.55
2023-01-21T01:51:34.285Z,6.70
2023-01-21T01:54:02.176Z,5.05
2023-01-21T01:56:31.277Z,4.90
2023-01-21T01:59:00.154Z,4.53
2023-01-21T02:01:28.144Z,5.68
2023-01-21T02:03:59.462Z,4.57
2023-01-21T02:06:28.110Z,4.75
2023-01-21T02:08:57.255Z,4.72
2023-01-21T02:11:25.226Z,4.35
2023-01-21T02:13:55.822Z,5.18
2023-01-21T02:16:50.149Z,4.35
2023-01-21T02:19:45.573Z,5.35
2023-01-21T02:22:21.904Z,5.50
2023-01-21T02:25:16.859Z,5.60
2023-01-21T02:27:50.467Z,6.90
2023-01-21T02:30:42.394Z,6.75
2023-01-21T02:33:40.685Z,5.75
2023-01-21T02:36:18.538Z,5.68
2023-01-21T02:38:54.733Z,5.95
2023-01-21T02:41:30.716Z,6.10
2023-01-21T02:44:08.036Z,7.07
2023-01-21T02:46:42.713Z,8.75
2023-01-21T02:49:19.340Z,8.15
2023-01-21T02:51:47.943Z,9.13
2023-01-21T02:54:17.674Z,10.68
2023-01-21T02:56:45.766Z,9.50
2023-01-21T02:59:13.996Z,9.63
2023-01-21T03:01:53.833Z,9.38
2023-01-21T03:04:49.365Z,9.15
2023-01-21T03:07:25.568Z,8.85
2023-01-21T03:09:55.795Z,10.95
2023-01-21T03:12:31.773Z,12.10
2023-01-21T03:15:22.447Z,12.90
2023-01-21T03:17:54.520Z,12.90
2023-01-21T03:20:27.263Z,10.75
2023-01-21T03:25:28.334Z,9.73
2023-01-21T03:27:57.527Z,10.63
2023-01-21T03:30:26.727Z,10.18
2023-01-21T03:32:56.611Z,11.10
2023-01-21T03:35:29.657Z,9.73
2023-01-21T03:38:01.793Z,9.60
2023-01-21T03:40:33.867Z,7.55
2023-01-21T03:43:01.950Z,8.30
2023-01-21T03:45:36.264Z,7.78
2023-01-21T03:48:12.661Z,7.07
2023-01-21T03:50:46.853Z,7.28
2023-01-21T03:53:14.405Z,8.73
2023-01-21T03:55:41.915Z,8.00
2023-01-21T03:58:09.408Z,10.07
2023-01-21T04:00:36.947Z,9.85
2023-01-21T04:03:04.533Z,10.38
2023-01-21T04:05:32.037Z,8.40
2023-01-21T04:08:00.846Z,8.63
2023-01-21T04:10:28.330Z,7.68
2023-01-21T04:12:55.818Z,7.10
2023-01-21T04:15:23.293Z,7.10
2023-01-21T04:17:50.812Z,8.02
2023-01-21T04:20:19.783Z,9.18
2023-01-21T04:22:47.290Z,8.52
2023-01-21T04:25:16.164Z,9.70
2023-01-21T04:27:44.710Z,10.27
2023-01-21T04:30:12.554Z,11.35
2023-01-21T04:32:40.068Z,10.88
2023-01-21T04:35:08.527Z,11.38
2023-01-21T04:37:36.009Z,11.80
2023-01-21T04:40:03.559Z,11.45
2023-01-21T04:42:32.365Z,11.18
2023-01-21T04:44:59.847Z,10.18
2023-01-21T04:47:27.358Z,10.40
2023-01-21T04:49:54.845Z,13.63
2023-01-21T04:52:22.359Z,13.68
2023-01-21T04:54:49.842Z,12.63
2023-01-21T04:57:17.378Z,13.73
2023-01-21T04:59:46.191Z,13.18
2023-01-21T05:02:14.005Z,12.13
2023-01-21T05:04:41.514Z,13.20
2023-01-21T05:07:09.169Z,12.98
2023-01-21T05:09:36.639Z,12.88
2023-01-21T05:12:04.343Z,12.88
2023-01-21T05:14:31.810Z,13.65
2023-01-21T05:17:00.800Z,14.00
2023-01-21T05:19:28.332Z,13.30
2023-01-21T05:21:55.787Z,13.85
2023-01-21T05:24:23.306Z,13.95
2023-01-21T05:26:50.830Z,13.43
2023-01-21T05:29:18.402Z,12.88
2023-01-21T05:31:46.026Z,14.02
2023-01-21T05:34:14.913Z,13.82
2023-01-21T05:36:42.447Z,14.13
2023-01-21T05:39:10.013Z,15.00
2023-01-21T05:41:37.534Z,14.80
2023-01-21T05:44:05.116Z,15.85
2023-01-21T05:46:32.623Z,15.52
2023-01-21T05:49:00.159Z,16.52
2023-01-21T05:51:29.024Z,14.05
2023-01-21T05:53:56.521Z,13.23
2023-01-21T05:56:24.094Z,14.20
2023-01-21T05:58:51.593Z,15.32
2023-01-21T06:01:19.241Z,14.13
2023-01-21T06:03:46.745Z,14.32
2023-01-21T06:06:14.344Z,14.93
2023-01-21T06:08:43.277Z,14.20
2023-01-21T06:11:10.752Z,14.70
2023-01-21T06:13:38.248Z,14.27
2023-01-21T06:16:06.402Z,16.67
2023-01-21T06:18:33.936Z,14.00
2023-01-21T06:21:01.691Z,15.40
2023-01-21T06:23:29.648Z,15.85
2023-01-21T06:26:01.553Z,16.75
2023-01-21T06:28:30.176Z,17.73
2023-01-21T06:30:57.851Z,16.35
2023-01-21T06:33:25.388Z,16.98
2023-01-21T06:35:52.876Z,16.83
2023-01-21T06:38:20.344Z,17.23
2023-01-21T06:40:47.801Z,16.42
2023-01-21T06:43:16.607Z,18.00
2023-01-21T06:45:44.240Z,18.13
2023-01-21T06:48:11.747Z,17.27
2023-01-21T06:50:39.244Z,17.80
2023-01-21T06:53:06.751Z,16.38
2023-01-21T06:55:34.213Z,17.42
2023-01-21T06:58:01.711Z,16.58
2023-01-21T07:00:30.996Z,17.38
2023-01-21T07:02:59.148Z,16.75
2023-01-21T07:05:27.529Z,17.50
2023-01-21T07:07:55.486Z,17.52
2023-01-21T07:10:23.073Z,18.50
2023-01-21T07:12:50.714Z,18.25
2023-01-21T07:15:18.853Z,17.33
2023-01-21T07:17:48.000Z,18.38
2023-01-21T07:20:15.809Z,17.40
2023-01-21T07:22:43.293Z,19.52
2023-01-21T07:25:11.132Z,20.75
2023-01-21T07:27:38.807Z,17.70
2023-01-21T07:30:07.527Z,19.02
2023-01-21T07:32:35.025Z,18.65
2023-01-21T07:35:03.852Z,18.05
2023-01-21T07:37:31.549Z,18.60
2023-01-21T07:39:59.110Z,17.38
2023-01-21T07:42:26.710Z,18.23
2023-01-21T07:44:54.210Z,17.90
2023-01-21T07:47:21.687Z,20.30
2023-01-21T07:49:49.885Z,18.85
2023-01-21T07:52:18.759Z,19.10
2023-01-21T07:54:46.213Z,17.75
2023-01-21T07:57:14.527Z,17.58
2023-01-21T07:59:42.121Z,18.10
2023-01-21T08:02:11.190Z,17.08
2023-01-21T08:04:38.736Z,17.33
2023-01-21T08:07:11.915Z,16.80
2023-01-21T08:09:41.741Z,17.63
2023-01-21T08:12:10.565Z,19.40
2023-01-21T08:14:38.696Z,18.60
2023-01-21T08:17:06.193Z,18.25
2023-01-21T08:19:33.701Z,18.98
2023-01-21T08:22:01.188Z,17.95
2023-01-21T08:24:28.770Z,18.23
2023-01-21T08:27:00.265Z,18.10
2023-01-21T08:29:28.517Z,19.25
2023-01-21T08:31:56.127Z,17.10
2023-01-21T08:34:23.704Z,18.58
2023-01-21T08:36:51.192Z,18.30
2023-01-21T08:39:18.836Z,17.38
2023-01-21T08:41:46.385Z,17.95
2023-01-21T08:44:15.225Z,18.02
2023-01-21T08:46:42.699Z,17.00
2023-01-21T08:49:10.209Z,17.13
2023-01-21T08:51:37.682Z,18.55
2023-01-21T08:54:05.518Z,17.88
2023-01-21T08:56:33.082Z,18.67
2023-01-21T08:59:02.433Z,18.80
2023-01-21T09:01:31.299Z,15.73
2023-01-21T09:04:00.206Z,17.98
2023-01-21T09:06:29.735Z,16.48
2023-01-21T09:08:58.361Z,18.17
2023-01-21T09:11:26.353Z,18.63
2023-01-21T09:13:53.966Z,18.67
2023-01-21T09:16:23.745Z,17.92
2023-01-21T09:18:52.609Z,19.58
2023-01-21T09:21:20.289Z,18.95
2023-01-21T09:23:47.795Z,18.85
2023-01-21T09:26:17.375Z,18.10
2023-01-21T09:28:46.338Z,18.45
2023-01-21T09:31:16.394Z,17.58
2023-01-21T09:33:47.719Z,18.02
2023-01-21T09:36:19.059Z,16.08
2023-01-21T09:38:48.321Z,18.30
2023-01-21T09:41:28.439Z,18.00
2023-01-21T09:44:03.664Z,17.67
2023-01-21T09:46:37.076Z,16.80
2023-01-21T09:49:07.819Z,17.42
2023-01-21T09:51:45.976Z,17.92
2023-01-21T09:54:20.233Z,17.95
2023-01-21T09:57:02.745Z,15.60
2023-01-21T09:59:44.100Z,16.08
2023-01-21T10:02:22.575Z,16.55
2023-01-21T10:05:00.828Z,15.63
2023-01-21T10:07:35.081Z,16.15
2023-01-21T10:10:14.971Z,15.05
2023-01-21T10:12:59.961Z,15.48
2023-01-21T10:15:51.015Z,14.77
2023-01-21T10:18:23.555Z,15.45
2023-01-21T10:20:55.500Z,15.95
2023-01-21T10:23:28.286Z,15.10
2023-01-21T10:28:26.609Z,16.33
2023-01-21T10:30:55.890Z,15.63
2023-01-21T10:33:25.539Z,14.93
2023-01-21T10:36:20.419Z,15.63
2023-01-21T10:38:57.098Z,15.18
2023-01-21T10:41:45.100Z,15.23
2023-01-21T10:44:23.702Z,14.80
2023-01-21T10:46:58.997Z,15.82
2023-01-21T10:49:35.174Z,13.45
2023-01-21T10:52:07.227Z,14.23
2023-01-21T10:54:47.848Z,14.52
2023-01-21T10:57:33.007Z,14.57
2023-01-21T11:00:02.743Z,16.55
2023-01-21T11:02:32.361Z,13.43
2023-01-21T11:05:03.124Z,14.02
2023-01-21T11:07:35.824Z,13.32
2023-01-21T11:10:06.890Z,13.05
2023-01-21T11:12:34.545Z,13.30
2023-01-21T11:15:08.504Z,14.50
2023-01-21T11:17:37.999Z,13.60
2023-01-21T11:20:16.417Z,14.52
2023-01-21T11:22:46.210Z,13.32
2023-01-21T11:25:27.087Z,12.77
2023-01-21T11:27:54.752Z,13.30
2023-01-21T11:30:50.031Z,15.00
2023-01-21T11:33:26.461Z,14.25
2023-01-21T11:35:55.767Z,14.45
2023-01-21T11:38:41.449Z,14.60
2023-01-21T11:41:19.231Z,14.50
2023-01-21T11:43:48.428Z,14.98
2023-01-21T11:46:27.535Z,14.57
2023-01-21T11:48:56.717Z,13.05
2023-01-21T11:51:24.363Z,14.15
2023-01-21T11:54:13.042Z,16.08
2023-01-21T11:56:44.194Z,15.70
2023-01-21T11:59:19.608Z,14.27
2023-01-21T12:01:53.520Z,13.82
2023-01-21T12:04:21.099Z,14.45
2023-01-21T12:06:51.631Z,14.00
2023-01-21T12:09:21.067Z,13.43
2023-01-21T12:12:09.571Z,14.98
2023-01-21T12:14:45.921Z,13.80
2023-01-21T12:17:21.988Z,13.55
2023-01-21T12:20:01.797Z,13.02
2023-01-21T12:22:43.488Z,13.32
2023-01-21T12:25:22.511Z,11.85
2023-01-21T12:28:04.019Z,12.50
2023-01-21T12:30:45.908Z,11.95
2023-01-21T12:33:19.720Z,11.75
2023-01-21T12:35:57.718Z,11.88
2023-01-21T12:38:31.493Z,12.02
2023-01-21T12:41:07.970Z,11.50
2023-01-21T12:43:45.550Z,11.00
2023-01-21T12:46:20.222Z,10.32
2023-01-21T12:48:54.067Z,10.95
2023-01-21T12:51:29.923Z,11.05
2023-01-21T12:54:06.672Z,10.23
2023-01-21T12:56:59.388Z,10.23
2023-01-21T12:59:36.718Z,10.82
2023-01-21T13:02:21.798Z,9.93
2023-01-21T13:05:01.587Z,10.65
2023-01-21T13:07:44.449Z,12.60
2023-01-21T13:10:19.188Z,10.85
2023-01-21T13:12:58.644Z,11.25
2023-01-21T13:15:38.072Z,10.40
2023-01-21T13:18:15.155Z,10.32
2023-01-21T13:20:56.705Z,9.82
2023-01-21T13:23:36.545Z,11.13
2023-01-21T13:26:15.017Z,12.13
2023-01-21T13:28:54.876Z,10.93
2023-01-21T13:31:39.024Z,9.80
2023-01-21T13:34:22.656Z,10.85
2023-01-21T13:37:10.343Z,8.95
2023-01-21T13:39:52.413Z,9.63
2023-01-21T13:42:43.338Z,10.00
2023-01-21T13:45:38.143Z,9.98
2023-01-21T13:48:27.396Z,9.88
2023-01-21T13:51:15.214Z,9.10
2023-01-21T13:54:04.224Z,8.98
2023-01-21T13:56:52.077Z,7.45
2023-01-21T13:59:36.006Z,7.82
2023-01-21T14:02:20.363Z,7.57
2023-01-21T14:04:59.082Z,6.75
2023-01-21T14:07:35.308Z,7.32
2023-01-21T14:10:11.171Z,7.07
2023-01-21T14:13:10.762Z,7.10
2023-01-21T14:15:56.515Z,7.30
2023-01-21T14:18:51.418Z,6.07
2023-01-21T14:21:53.616Z,6.38
2023-01-21T14:24:44.617Z,6.38
2023-01-21T14:27:31.563Z,5.43
2023-01-21T14:30:17.730Z,5.80
2023-01-21T14:32:52.834Z,6.05
2023-01-21T14:35:37.382Z,5.80
2023-01-21T14:38:20.403Z,5.93
2023-01-21T14:46:34.178Z,5.75
2023-01-21T14:49:07.855Z,6.32
2023-01-21T14:51:37.808Z,6.22
2023-01-21T14:54:13.256Z,6.75
2023-01-21T14:56:41.688Z,6.40
2023-01-21T14:59:28.289Z,7.22
2023-01-21T15:02:01.604Z,5.47
2023-01-21T15:04:31.693Z,7.35
2023-01-21T15:07:02.291Z,6.93
2023-01-21T15:09:33.969Z,7.05
2023-01-21T15:12:04.331Z,6.20
2023-01-21T15:14:36.628Z,6.30
2023-01-21T15:17:04.686Z,6.97
2023-01-21T15:19:34.494Z,5.78
2023-01-21T15:22:46.607Z,6.93
2023-01-21T15:25:21.460Z,7.18
2023-01-21T15:28:40.160Z,7.20
2023-01-21T15:31:10.477Z,7.50
2023-01-21T15:33:46.750Z,5.88
2023-01-21T15:36:25.776Z,7.78
2023-01-21T15:38:55.264Z,7.00
2023-01-21T15:41:35.013Z,6.45
2023-01-21T15:44:16.517Z,7.05
2023-01-21T15:46:56.085Z,6.85
2023-01-21T15:49:38.246Z,8.60
2023-01-21T15:52:23.745Z,7.60
2023-01-21T15:54:58.756Z,6.85
2023-01-21T15:57:42.512Z,8.48
2023-01-21T16:00:30.849Z,6.57
2023-01-21T16:03:04.752Z,7.80
2023-01-21T16:05:43.256Z,7.43
2023-01-21T16:08:20.571Z,7.78
2023-01-21T16:10:58.651Z,7.10
2023-01-21T16:13:39.531Z,6.90
2023-01-21T16:16:14.670Z,8.00
2023-01-21T16:18:52.625Z,8.00
2023-01-21T16:21:22.625Z,7.50
2023-01-21T16:23:53.016Z,7.22
2023-01-21T16:26:27.590Z,7.95
2023-01-21T16:28:57.153Z,7.45
2023-01-21T16:31:24.983Z,7.47
2023-01-21T16:33:53.653Z,7.82
2023-01-21T16:36:21.578Z,15.00
2023-01-21T16:38:49.249Z,9.90
2023-01-21T16:41:23.873Z,9.50
2023-01-21T16:43:53.535Z,7.82
2023-01-21T16:46:26.682Z,8.18
2023-01-21T16:49:06.660Z,7.88
2023-01-21T16:51:42.875Z,9.10
2023-01-21T16:54:32.571Z,8.80
2023-01-21T16:57:24.686Z,8.38
2023-01-21T16:59:55.957Z,7.88
2023-01-21T17:02:28.578Z,8.50
2023-01-21T17:04:58.960Z,8.43
2023-01-21T17:07:29.281Z,8.75
2023-01-21T17:10:03.716Z,8.90
2023-01-21T17:12:35.970Z,8.02
2023-01-21T17:15:17.790Z,8.75
2023-01-21T17:17:57.622Z,8.20
2023-01-21T17:20:44.020Z,8.15
2023-01-21T17:23:18.141Z,7.85
2023-01-21T17:25:52.774Z,9.40
2023-01-21T17:28:30.595Z,8.82
2023-01-21T17:31:23.038Z,9.52
2023-01-21T17:34:20.458Z,9.10
2023-01-21T17:36:50.311Z,7.97
2023-01-21T17:39:51.931Z,9.52
2023-01-21T17:42:22.779Z,8.98
2023-01-21T17:44:52.980Z,9.13
2023-01-21T17:47:24.388Z,9.32
2023-01-21T17:49:59.924Z,9.00
2023-01-21T17:52:28.117Z,10.15
2023-01-21T17:55:11.183Z,9.45
2023-01-21T18:00:26.157Z,9.10
2023-01-21T18:02:54.005Z,10.98
2023-01-21T18:05:23.151Z,9.68
2023-01-21T18:07:51.604Z,9.68
2023-01-21T18:10:21.412Z,10.57
2023-01-21T18:12:49.045Z,8.80
2023-01-21T18:15:19.410Z,9.07
2023-01-21T18:17:50.469Z,9.02
2023-01-21T18:20:19.829Z,9.50
2023-01-21T18:22:49.756Z,9.38
2023-01-21T18:25:18.090Z,9.30
2023-01-21T18:27:51.698Z,9.25
2023-01-21T18:30:21.848Z,9.02
2023-01-21T18:32:49.958Z,9.18
2023-01-21T18:35:20.938Z,8.93
2023-01-21T18:37:49.936Z,8.55
2023-01-21T18:40:21.535Z,8.38
2023-01-21T18:42:50.738Z,8.13
2023-01-21T18:45:20.122Z,9.65
2023-01-21T18:47:49.980Z,9.82
2023-01-21T18:50:20.046Z,8.75
2023-01-21T18:52:47.771Z,8.85
2023-01-21T18:55:18.698Z,9.80
2023-01-21T18:57:49.397Z,8.88
2023-01-21T19:00:22.699Z,10.23
2023-01-21T19:02:50.863Z,9.25
2023-01-21T19:05:18.631Z,8.63
2023-01-21T19:07:46.391Z,9.68
2023-01-21T19:10:17.837Z,9.50
2023-01-21T19:12:45.463Z,9.35
2023-01-21T19:15:16.491Z,10.18
2023-01-21T19:17:44.599Z,9.52
2023-01-21T19:20:17.797Z,9.77
2023-01-21T19:22:45.480Z,10.55
2023-01-21T19:25:13.568Z,9.88
2023-01-21T19:27:45.183Z,10.30
2023-01-21T19:30:20.507Z,10.35
2023-01-21T19:32:48.561Z,11.00
2023-01-21T19:35:17.172Z,10.25
2023-01-21T19:37:49.137Z,11.43
2023-01-21T19:40:19.622Z,11.18
2023-01-21T19:42:49.558Z,11.50
2023-01-21T19:45:18.632Z,11.10
2023-01-21T19:47:50.258Z,11.07
2023-01-21T19:50:20.380Z,10.02
2023-01-21T19:52:49.709Z,10.05
2023-01-21T19:55:19.862Z,10.10
2023-01-21T19:57:56.151Z,9.90
2023-01-21T20:00:26.220Z,10.63
2023-01-21T20:02:54.117Z,12.90
2023-01-21T20:05:22.740Z,11.45
2023-01-21T20:07:51.788Z,10.85
2023-01-21T20:10:22.009Z,10.52
2023-01-21T20:12:51.513Z,10.68
2023-01-21T20:15:20.583Z,9.75
2023-01-21T20:17:52.511Z,9.43
2023-01-21T20:20:22.558Z,9.70
2023-01-21T20:22:50.366Z,9.88
2023-01-21T20:25:19.681Z,10.13
2023-01-21T20:27:51.988Z,11.23
2023-01-21T20:30:21.693Z,9.80
2023-01-21T20:32:49.613Z,9.98
2023-01-21T20:35:18.824Z,12.48
2023-01-21T20:37:48.945Z,10.35
2023-01-21T20:40:20.116Z,9.93
2023-01-21T20:42:48.212Z,10.50
2023-01-21T20:45:18.947Z,10.02
2023-01-21T20:47:50.850Z,10.82
2023-01-21T20:50:20.430Z,10.60
2023-01-21T20:52:49.244Z,10.18
2023-01-21T20:55:20.760Z,10.65
2023-01-21T20:57:48.781Z,10.90
2023-01-21T21:00:20.419Z,11.07
2023-01-21T21:02:48.957Z,10.75
2023-01-21T21:05:18.468Z,11.43
2023-01-21T21:07:46.281Z,10.63
2023-01-21T21:10:19.676Z,11.05
2023-01-21T21:12:47.383Z,9.77
2023-01-21T21:15:15.739Z,9.77
2023-01-21T21:17:46.912Z,10.10
2023-01-21T21:20:19.768Z,9.90
2023-01-21T21:25:16.448Z,10.25
2023-01-21T21:27:45.057Z,10.70
2023-01-21T21:30:15.429Z,10.75
2023-01-21T21:32:43.179Z,12.43
2023-01-21T21:35:21.993Z,12.38
2023-01-21T21:37:49.499Z,10.70
2023-01-21T21:40:17.267Z,10.10
2023-01-21T21:43:02.298Z,10.38
2023-01-21T21:45:29.810Z,9.68
2023-01-21T21:48:15.118Z,11.00
2023-01-21T21:50:44.030Z,10.38
2023-01-21T21:53:12.360Z,10.80
2023-01-21T21:55:39.819Z,10.63
2023-01-21T21:58:07.315Z,10.07
2023-01-21T22:00:34.786Z,10.48
2023-01-21T22:03:02.808Z,10.05
2023-01-21T22:05:32.982Z,11.90
2023-01-21T22:08:01.935Z,9.65
2023-01-21T22:10:29.444Z,11.68
2023-01-21T22:12:57.063Z,10.68
2023-01-21T22:15:24.559Z,12.27
2023-01-21T22:17:52.059Z,11.88
2023-01-21T22:20:19.847Z,14.38
2023-01-21T22:22:47.385Z,12.98
2023-01-21T22:25:16.522Z,12.00
2023-01-21T22:27:44.194Z,11.23
2023-01-21T22:30:13.558Z,10.48
2023-01-21T22:32:41.197Z,11.57
2023-01-21T22:35:09.391Z,12.35
2023-01-21T22:37:36.875Z,12.25
2023-01-21T22:40:04.924Z,11.65
2023-01-21T22:42:33.835Z,10.15
2023-01-21T22:45:01.323Z,10.73
2023-01-21T22:47:31.944Z,10.38
2023-01-21T22:49:59.454Z,11.60
2023-01-21T22:52:28.513Z,10.38
2023-01-21T22:54:55.997Z,9.90
2023-01-21T22:57:23.589Z,9.93
2023-01-21T22:59:52.461Z,10.32
2023-01-21T23:02:19.954Z,10.55
2023-01-21T23:04:47.460Z,10.30
2023-01-21T23:07:15.019Z,10.75
2023-01-21T23:09:42.491Z,10.70
2023-01-21T23:12:18.615Z,10.38
2023-01-21T23:14:46.365Z,10.70
2023-01-21T23:17:16.610Z,10.05
2023-01-21T23:19:44.156Z,9.73
2023-01-21T23:22:11.944Z,10.23
2023-01-21T23:24:39.499Z,10.05
2023-01-21T23:27:07.018Z,9.93
2023-01-21T23:29:34.582Z,11.13
2023-01-21T23:32:02.350Z,10.50
2023-01-21T23:34:31.462Z,10.52
2023-01-21T23:36:59.040Z,11.60
2023-01-21T23:39:26.541Z,11.13
2023-01-21T23:41:54.904Z,12.30
2023-01-21T23:44:25.341Z,11.40
2023-01-21T23:46:53.086Z,11.10
2023-01-21T23:49:21.051Z,11.20
2023-01-21T23:51:49.932Z,11.50
2023-01-21T23:54:17.581Z,11.18
2023-01-21T23:56:45.062Z,11.73
2023-01-21T23:59:12.626Z,10.65
